Time;durP1;ratioP1;P1;durP2;ratioP2;P2;SDS_P1;SDS_P2;PMS_P1;PMS_P2;Temp;Humidity;BMP_temperature;BMP_pressure;BME280_temperature;BME280_humidity;BME280_pressure;Samples;Min_cycle;Max_cycle;Signal;HPM_P1;HPM_P2
2022/01/26 00:00:57;;;;;;;9.75;3.70;;;2.50;99.90;;;;;;4993625;28;20054;-76
2022/01/26 00:06:39;;;;;;;8.38;4.00;;;2.40;99.90;;;;;;4994898;28;20047;-76
2022/01/26 00:09:08;;;;;;;9.55;3.70;;;2.50;99.90;;;;;;4994368;28;20111;-76
2022/01/26 00:11:39;;;;;;;12.10;3.20;;;2.50;99.90;;;;;;5006383;28;20048;-75
2022/01/26 00:14:12;;;;;;;8.38;4.28;;;2.50;99.90;;;;;;5021017;28;20065;-75
2022/01/26 00:16:44;;;;;;;11.98;3.50;;;2.50;99.90;;;;;;4990578;28;20052;-76
2022/01/26 00:19:20;;;;;;;9.88;3.80;;;2.50;99.90;;;;;;4994106;28;20510;-76
2022/01/26 00:21:51;;;;;;;9.63;2.75;;;2.50;99.90;;;;;;5006197;28;20042;-76
2022/01/26 00:24:50;;;;;;;6.13;2.33;;;2.60;99.90;;;;;;4988866;28;20050;-76
2022/01/26 00:27:35;;;;;;;8.02;3.00;;;2.60;99.90;;;;;;4985810;28;20050;-76
2022/01/26 00:31:13;;;;;;;14.02;4.43;;;2.60;99.90;;;;;;4992308;28;20112;-76
2022/01/26 00:39:05;;;;;;;10.73;4.37;;;2.50;99.90;;;;;;5026056;28;20049;-75
2022/01/26 00:41:37;;;;;;;12.45;4.15;;;2.50;99.90;;;;;;5010691;28;20045;-76
2022/01/26 00:44:07;;;;;;;10.00;4.45;;;2.50;99.90;;;;;;5022830;28;20051;-76
2022/01/26 00:46:36;;;;;;;8.52;3.30;;;2.50;99.90;;;;;;5010377;28;20049;-76
2022/01/26 00:49:05;;;;;;;8.35;3.67;;;2.50;99.90;;;;;;5022060;28;20037;-76
2022/01/26 00:51:35;;;;;;;6.37;2.73;;;2.40;99.90;;;;;;5005849;28;20030;-76
2022/01/26 00:54:06;;;;;;;12.18;3.97;;;2.50;99.90;;;;;;5022335;28;20034;-76
2022/01/26 00:56:35;;;;;;;12.55;5.10;;;2.50;99.90;;;;;;5007722;28;20056;-76
2022/01/26 00:59:04;;;;;;;10.48;4.03;;;2.50;99.90;;;;;;5009285;28;20395;-76
2022/01/26 01:01:33;;;;;;;12.30;3.10;;;2.60;99.90;;;;;;5029603;28;20148;-76
2022/01/26 01:04:02;;;;;;;13.63;4.30;;;2.60;99.90;;;;;;5009093;28;20125;-76
2022/01/26 01:06:37;;;;;;;11.38;4.68;;;2.60;99.90;;;;;;5031475;28;20552;-76
2022/01/26 01:09:08;;;;;;;18.70;5.55;;;2.60;99.90;;;;;;5029760;28;20053;-76
2022/01/26 01:11:38;;;;;;;14.65;5.22;;;2.60;99.90;;;;;;5026144;28;20045;-76
2022/01/26 01:14:08;;;;;;;15.57;5.45;;;2.60;99.90;;;;;;5039810;28;20124;-76
2022/01/26 01:16:37;;;;;;;14.27;3.90;;;2.70;99.90;;;;;;5007477;28;20042;-76
2022/01/26 01:19:11;;;;;;;12.82;4.68;;;2.70;99.90;;;;;;5024096;28;20132;-76
2022/01/26 01:22:18;;;;;;;10.52;3.92;;;2.50;99.90;;;;;;5023429;28;20080;-76
2022/01/26 01:25:20;;;;;;;10.23;3.55;;;2.60;99.90;;;;;;5026516;28;20416;-76
2022/01/26 01:27:59;;;;;;;11.00;3.78;;;2.60;99.90;;;;;;5026837;28;20072;-76
2022/01/26 01:30:57;;;;;;;9.50;4.07;;;2.60;99.90;;;;;;5030339;28;20591;-76
2022/01/26 01:34:16;;;;;;;11.20;4.75;;;2.70;99.90;;;;;;5029673;28;20052;-75
2022/01/26 01:36:51;;;;;;;14.13;4.95;;;2.50;99.90;;;;;;5039138;28;20417;-76
2022/01/26 01:39:20;;;;;;;9.18;4.70;;;2.40;99.90;;;;;;5010844;28;20084;-76
2022/01/26 01:41:51;;;;;;;16.33;5.47;;;2.50;99.90;;;;;;5004246;28;20559;-76
2022/01/26 01:44:20;;;;;;;11.70;5.97;;;2.50;99.90;;;;;;5009181;28;20049;-76
2022/01/26 01:46:49;;;;;;;14.50;6.72;;;2.50;99.90;;;;;;5024524;28;20045;-76
2022/01/26 01:49:19;;;;;;;13.02;3.92;;;2.50;99.90;;;;;;5009513;28;20038;-75
2022/01/26 01:51:51;;;;;;;11.27;4.38;;;2.50;99.90;;;;;;5027426;28;20048;-76
2022/01/26 01:54:21;;;;;;;11.35;4.50;;;2.50;99.90;;;;;;5035121;28;20076;-76
2022/01/26 01:56:55;;;;;;;9.83;4.87;;;2.50;99.90;;;;;;5019862;28;20038;-75
2022/01/26 01:59:26;;;;;;;10.35;3.65;;;2.50;99.90;;;;;;5027561;28;20077;-76
2022/01/26 02:01:56;;;;;;;18.00;5.53;;;2.50;99.90;;;;;;5030260;28;20053;-76
2022/01/26 02:08:19;;;;;;;15.07;6.05;;;2.50;99.90;;;;;;5020049;28;20043;-76
2022/01/26 02:10:48;;;;;;;15.40;6.03;;;2.50;99.90;;;;;;5027937;28;20048;-76
2022/01/26 02:13:24;;;;;;;8.93;4.00;;;2.50;99.90;;;;;;5025218;28;20046;-76
2022/01/26 02:16:02;;;;;;;12.90;5.80;;;2.50;99.90;;;;;;5028168;28;20133;-76
2022/01/26 02:18:50;;;;;;;9.85;4.57;;;2.50;99.90;;;;;;5024664;28;20061;-76
2022/01/26 02:21:43;;;;;;;14.93;4.47;;;2.40;99.90;;;;;;5028259;28;20064;-75
2022/01/26 02:50:09;;;;;;;13.75;4.18;;;2.20;99.90;;;;;;5020273;28;20464;-76
2022/01/26 02:53:42;;;;;;;5.03;2.80;;;2.20;99.90;;;;;;5022020;28;20041;-76
2022/01/26 02:56:18;;;;;;;13.67;3.90;;;2.10;99.90;;;;;;5025254;28;20717;-76
2022/01/26 02:59:08;;;;;;;9.32;4.43;;;2.10;99.90;;;;;;5018486;28;20033;-75
2022/01/26 03:01:49;;;;;;;12.05;4.78;;;2.10;99.90;;;;;;5016938;28;20116;-76
2022/01/26 03:04:26;;;;;;;15.48;7.30;;;2.20;99.90;;;;;;5025281;28;20120;-76
2022/01/26 03:07:00;;;;;;;15.27;6.03;;;2.20;99.90;;;;;;5019909;28;20085;-76
2022/01/26 03:09:35;;;;;;;16.93;5.70;;;2.20;99.90;;;;;;5023128;28;20049;-76
2022/01/26 03:12:07;;;;;;;12.02;4.82;;;2.20;99.90;;;;;;5020918;28;20145;-76
2022/01/26 03:14:45;;;;;;;15.23;3.95;;;2.20;99.90;;;;;;5023992;28;20046;-75
2022/01/26 03:18:03;;;;;;;15.20;6.45;;;2.20;99.90;;;;;;5025446;28;20048;-75
2022/01/26 03:20:34;;;;;;;23.88;6.45;;;2.20;99.90;;;;;;5022208;28;20049;-76
2022/01/26 03:28:40;;;;;;;11.80;5.07;;;2.10;99.90;;;;;;5023055;28;20072;-76
2022/01/26 03:33:56;;;;;;;13.07;5.35;;;2.00;99.90;;;;;;5019930;28;20092;-76
2022/01/26 03:36:32;;;;;;;12.50;5.50;;;2.00;99.90;;;;;;5028493;28;20061;-76
2022/01/26 03:39:07;;;;;;;18.55;5.07;;;2.00;99.90;;;;;;5022744;28;20038;-75
2022/01/26 03:41:42;;;;;;;13.60;4.97;;;2.10;99.90;;;;;;5028938;28;20077;-76
2022/01/26 03:44:11;;;;;;;9.27;4.85;;;2.10;99.90;;;;;;5025466;28;20049;-76
2022/01/26 03:46:41;;;;;;;12.20;5.95;;;2.10;99.90;;;;;;5022650;28;20469;-76
2022/01/26 03:49:10;;;;;;;13.57;5.07;;;2.10;99.90;;;;;;5023054;28;20041;-76
2022/01/26 03:51:40;;;;;;;15.15;4.43;;;2.10;99.90;;;;;;5007672;28;20066;-75
2022/01/26 03:54:11;;;;;;;9.95;4.43;;;2.10;99.90;;;;;;5020828;28;20568;-76
2022/01/26 03:57:07;;;;;;;10.55;5.20;;;2.10;99.90;;;;;;5025680;28;20052;-76
2022/01/26 03:59:36;;;;;;;8.75;3.72;;;2.10;99.90;;;;;;5019197;28;20049;-76
2022/01/26 04:02:05;;;;;;;8.43;3.53;;;2.20;99.90;;;;;;5020657;28;20041;-75
2022/01/26 04:04:42;;;;;;;16.13;4.15;;;2.10;99.90;;;;;;5006560;28;20045;-75
2022/01/26 04:07:11;;;;;;;9.63;4.03;;;2.10;99.90;;;;;;5020553;28;20496;-76
2022/01/26 04:09:40;;;;;;;10.00;3.80;;;2.10;99.90;;;;;;5023792;28;20365;-76
2022/01/26 04:12:11;;;;;;;7.93;2.92;;;2.00;99.90;;;;;;5018873;28;20128;-76
2022/01/26 04:14:41;;;;;;;9.30;4.53;;;2.00;99.90;;;;;;5024378;28;20547;-75
2022/01/26 04:17:34;;;;;;;11.18;3.92;;;2.10;99.90;;;;;;5037880;28;20603;-76
2022/01/26 04:20:03;;;;;;;10.18;3.97;;;2.10;99.90;;;;;;5022437;28;20057;-75
2022/01/26 04:22:40;;;;;;;11.40;4.30;;;2.00;99.90;;;;;;5022355;28;20115;-75
2022/01/26 04:25:09;;;;;;;11.30;4.40;;;2.00;99.90;;;;;;5021382;28;20678;-75
2022/01/26 04:27:43;;;;;;;13.50;3.67;;;2.00;99.90;;;;;;5007209;28;20041;-76
2022/01/26 04:30:14;;;;;;;8.57;3.55;;;2.00;99.90;;;;;;5020062;28;20053;-76
2022/01/26 04:32:42;;;;;;;10.02;4.00;;;1.80;99.90;;;;;;5024352;28;20155;-76
2022/01/26 04:35:19;;;;;;;11.75;4.47;;;1.80;99.90;;;;;;5028303;28;20061;-76
2022/01/26 04:38:11;;;;;;;12.93;4.85;;;1.80;99.90;;;;;;5028322;28;20038;-75
2022/01/26 04:40:48;;;;;;;6.03;3.40;;;1.80;99.90;;;;;;5026441;28;20041;-75
2022/01/26 04:43:23;;;;;;;7.55;3.28;;;1.90;99.90;;;;;;5029309;28;20049;-76
2022/01/26 04:45:52;;;;;;;6.65;2.67;;;1.90;99.90;;;;;;5010009;28;20053;-75
2022/01/26 04:48:21;;;;;;;11.02;3.90;;;1.90;99.90;;;;;;5028033;28;20038;-76
2022/01/26 04:50:49;;;;;;;10.32;2.97;;;1.90;99.90;;;;;;5026904;28;20041;-76
2022/01/26 04:53:17;;;;;;;11.57;4.97;;;1.90;99.90;;;;;;5029199;28;20037;-76
2022/01/26 04:55:45;;;;;;;10.38;4.35;;;1.90;99.90;;;;;;5044298;28;20048;-76
2022/01/26 04:58:14;;;;;;;9.10;3.97;;;1.90;99.90;;;;;;5011035;28;20129;-76
2022/01/26 05:00:45;;;;;;;9.45;3.15;;;1.90;99.90;;;;;;5040975;28;20038;-76
2022/01/26 05:03:14;;;;;;;8.60;3.63;;;1.90;99.90;;;;;;5010962;28;20119;-76
2022/01/26 05:05:43;;;;;;;16.27;5.50;;;1.90;99.90;;;;;;5012697;28;20131;-76
2022/01/26 05:08:17;;;;;;;11.43;4.13;;;1.90;99.90;;;;;;5028915;28;20128;-76
2022/01/26 05:10:46;;;;;;;8.05;4.15;;;1.90;99.90;;;;;;5018924;28;20399;-76
2022/01/26 05:13:16;;;;;;;8.48;3.38;;;1.80;99.90;;;;;;5015838;28;20041;-76
2022/01/26 05:15:47;;;;;;;9.35;3.90;;;1.70;99.90;;;;;;5011865;28;20424;-75
2022/01/26 05:18:16;;;;;;;7.90;3.50;;;1.70;99.90;;;;;;5030342;28;20083;-75
2022/01/26 05:20:46;;;;;;;6.68;3.28;;;1.70;99.90;;;;;;5022774;28;20364;-75
2022/01/26 05:23:14;;;;;;;8.85;3.35;;;1.70;99.90;;;;;;5026165;28;20513;-76
2022/01/26 05:25:43;;;;;;;12.07;3.97;;;1.70;99.90;;;;;;5027005;28;20553;-73
2022/01/26 05:28:13;;;;;;;8.73;4.10;;;1.70;99.90;;;;;;5032629;28;20049;-76
2022/01/26 05:30:42;;;;;;;8.30;3.90;;;1.80;99.90;;;;;;5025980;28;20037;-76
2022/01/26 05:33:15;;;;;;;13.35;3.83;;;1.80;99.90;;;;;;5022888;28;20057;-76
2022/01/26 05:35:47;;;;;;;9.45;4.15;;;1.90;99.90;;;;;;5026777;28;20108;-75
2022/01/26 05:38:41;;;;;;;7.30;3.30;;;1.90;99.90;;;;;;5028863;28;20041;-77
2022/01/26 05:41:12;;;;;;;11.27;3.83;;;2.00;99.90;;;;;;5027336;28;20473;-76
2022/01/26 05:43:41;;;;;;;11.00;3.60;;;1.90;99.90;;;;;;5029412;28;20059;-77
2022/01/26 05:46:14;;;;;;;16.13;4.63;;;1.80;99.90;;;;;;5030652;28;20096;-75
2022/01/26 05:48:46;;;;;;;14.27;4.72;;;1.80;99.90;;;;;;5024413;28;20053;-74
2022/01/26 05:51:16;;;;;;;13.05;3.92;;;1.80;99.90;;;;;;5031721;28;20038;-77
2022/01/26 05:53:44;;;;;;;9.25;3.53;;;1.80;99.90;;;;;;5029934;28;20037;-79
2022/01/26 06:00:46;;;;;;;7.75;3.35;;;1.80;99.90;;;;;;5027949;28;20057;-74
2022/01/26 06:03:16;;;;;;;13.43;4.80;;;1.80;99.90;;;;;;5019425;28;20069;-77
2022/01/26 06:05:46;;;;;;;9.85;4.03;;;1.80;99.90;;;;;;5027649;28;20046;-74
2022/01/26 06:08:18;;;;;;;10.73;4.43;;;1.80;99.90;;;;;;5025282;28;20080;-75
2022/01/26 06:10:47;;;;;;;9.80;4.30;;;1.70;99.90;;;;;;5025038;28;20041;-72
2022/01/26 06:13:16;;;;;;;9.88;4.20;;;1.80;99.90;;;;;;5008188;28;20380;-78
2022/01/26 06:15:47;;;;;;;8.95;3.85;;;1.80;99.90;;;;;;5027321;28;20053;-76
2022/01/26 06:18:26;;;;;;;17.75;4.60;;;1.90;99.90;;;;;;5040458;28;20052;-80
2022/01/26 06:20:56;;;;;;;11.45;3.85;;;1.90;99.90;;;;;;5009198;28;20145;-77
2022/01/26 06:23:25;;;;;;;7.80;3.80;;;1.90;99.90;;;;;;5021468;28;20115;-76
2022/01/26 06:25:54;;;;;;;8.63;3.33;;;1.80;99.90;;;;;;5025371;28;20071;-78
2022/01/26 06:28:26;;;;;;;11.00;3.33;;;1.80;99.90;;;;;;5029554;28;20080;-76
2022/01/26 06:30:59;;;;;;;9.15;3.33;;;1.80;99.90;;;;;;5024512;28;20049;-76
2022/01/26 06:33:52;;;;;;;12.40;3.65;;;1.80;99.90;;;;;;5025225;28;20084;-76
2022/01/26 06:36:22;;;;;;;6.10;3.17;;;1.80;99.90;;;;;;5026871;28;20056;-76
2022/01/26 06:38:51;;;;;;;17.50;3.97;;;1.80;99.90;;;;;;5024254;28;20687;-76
2022/01/26 06:41:23;;;;;;;8.10;3.08;;;1.80;99.90;;;;;;5027474;28;20037;-76
2022/01/26 06:43:58;;;;;;;11.25;4.85;;;1.80;99.90;;;;;;5024923;28;20041;-76
2022/01/26 06:46:34;;;;;;;7.97;2.90;;;1.80;99.90;;;;;;5026991;28;20045;-76
2022/01/26 06:51:48;;;;;;;6.90;4.18;;;1.80;99.90;;;;;;5022247;28;20159;-76
2022/01/26 06:54:17;;;;;;;5.80;3.35;;;1.80;99.90;;;;;;5037863;28;20037;-76
2022/01/26 06:56:45;;;;;;;10.27;2.75;;;1.80;99.90;;;;;;5026577;28;20115;-76
2022/01/26 06:59:20;;;;;;;8.43;3.20;;;1.80;99.90;;;;;;5025065;28;20033;-75
2022/01/26 07:01:49;;;;;;;7.40;2.80;;;1.80;99.90;;;;;;5018222;28;20037;-76
2022/01/26 07:04:18;;;;;;;8.55;3.28;;;1.90;99.90;;;;;;5029966;28;20050;-76
2022/01/26 07:06:47;;;;;;;10.73;3.35;;;2.00;99.90;;;;;;5026507;28;20084;-76
2022/01/26 07:09:17;;;;;;;6.90;2.30;;;2.00;99.90;;;;;;5025324;28;20038;-77
2022/01/26 07:11:46;;;;;;;9.05;3.38;;;2.00;99.90;;;;;;5024264;28;20506;-76
2022/01/26 07:14:25;;;;;;;8.73;2.70;;;2.00;99.90;;;;;;5026179;28;20680;-76
2022/01/26 07:21:22;;;;;;;6.88;3.65;;;2.00;99.90;;;;;;5023895;28;20042;-76
2022/01/26 07:23:14;;;;;;;5.43;2.40;;;2.00;99.90;;;;;;5010314;28;20103;-77
2022/01/26 07:25:43;;;;;;;7.15;3.35;;;2.00;99.90;;;;;;5027063;28;21629;-77
2022/01/26 07:28:11;;;;;;;7.60;3.53;;;2.10;99.90;;;;;;5008567;28;20141;-76
2022/01/26 07:30:41;;;;;;;8.25;3.28;;;2.10;99.90;;;;;;5002884;28;20440;-77
2022/01/26 07:33:09;;;;;;;7.00;3.53;;;2.10;99.90;;;;;;5024465;28;20045;-77
2022/01/26 07:36:05;;;;;;;5.85;2.28;;;2.10;99.90;;;;;;5024295;28;20061;-76
2022/01/26 07:38:35;;;;;;;9.32;3.72;;;2.10;99.90;;;;;;5029055;28;20042;-76
2022/01/26 07:41:05;;;;;;;13.10;3.70;;;2.10;99.90;;;;;;5009787;28;20232;-77
2022/01/26 07:43:34;;;;;;;9.45;4.13;;;2.10;99.90;;;;;;5031076;28;20041;-77
2022/01/26 07:46:06;;;;;;;7.60;2.90;;;2.10;99.90;;;;;;5030067;28;20073;-76
2022/01/26 07:48:35;;;;;;;7.97;3.97;;;2.00;99.90;;;;;;5029034;28;20049;-76
2022/01/26 07:51:06;;;;;;;8.80;3.28;;;2.00;99.90;;;;;;5011776;28;20051;-77
2022/01/26 07:53:37;;;;;;;6.83;3.63;;;2.00;99.90;;;;;;5025767;28;20179;-76
2022/01/26 07:56:08;;;;;;;11.70;3.88;;;1.90;99.90;;;;;;5029996;28;20277;-76
2022/01/26 07:58:39;;;;;;;6.20;3.28;;;2.00;99.90;;;;;;5041412;28;20053;-77
2022/01/26 08:01:08;;;;;;;8.40;3.58;;;2.00;99.90;;;;;;5026194;28;20033;-76
2022/01/26 08:03:37;;;;;;;12.95;4.90;;;2.00;99.90;;;;;;5026735;28;20095;-76
2022/01/26 08:06:14;;;;;;;8.37;3.40;;;1.90;99.90;;;;;;5026269;28;20056;-76
2022/01/26 08:08:44;;;;;;;13.77;5.50;;;1.90;99.90;;;;;;5028907;28;20048;-77
2022/01/26 08:11:12;;;;;;;8.20;3.95;;;2.00;99.90;;;;;;5008854;28;20037;-77
2022/01/26 08:14:07;;;;;;;14.13;5.68;;;1.90;99.90;;;;;;5008461;28;20063;-76
2022/01/26 08:16:37;;;;;;;7.38;3.90;;;1.90;99.90;;;;;;5025002;28;20397;-76
2022/01/26 08:19:05;;;;;;;11.60;4.63;;;1.90;99.90;;;;;;5029591;28;20125;-76
2022/01/26 08:21:34;;;;;;;13.13;4.90;;;1.90;99.90;;;;;;5023705;28;20049;-77
2022/01/26 08:24:12;;;;;;;11.45;5.22;;;1.80;99.90;;;;;;5023469;28;20447;-76
2022/01/26 08:26:45;;;;;;;8.85;4.25;;;1.80;99.90;;;;;;5023353;28;20475;-77
2022/01/26 08:29:17;;;;;;;10.05;4.13;;;1.80;99.90;;;;;;5024833;28;20047;-76
2022/01/26 08:34:39;;;;;;;7.47;3.63;;;1.90;99.90;;;;;;5021155;28;20141;-77
2022/01/26 08:37:08;;;;;;;11.48;3.30;;;1.90;99.90;;;;;;5038900;28;20065;-76
2022/01/26 08:39:39;;;;;;;11.82;4.18;;;1.80;99.90;;;;;;5019097;28;20041;-77
2022/01/26 08:42:08;;;;;;;6.75;3.40;;;1.80;99.90;;;;;;5001551;28;20069;-76
2022/01/26 08:44:37;;;;;;;10.47;3.37;;;1.80;99.90;;;;;;5027678;28;20468;-77
2022/01/26 08:47:07;;;;;;;4.78;2.60;;;1.80;99.90;;;;;;5022685;28;20380;-76
2022/01/26 08:49:36;;;;;;;8.07;3.13;;;1.80;99.90;;;;;;5027772;28;20125;-77
2022/01/26 08:52:05;;;;;;;6.32;3.10;;;1.80;99.90;;;;;;5023556;28;20050;-76
2022/01/26 08:54:33;;;;;;;9.43;3.28;;;1.80;99.90;;;;;;5020450;28;20046;-76
2022/01/26 08:57:04;;;;;;;8.20;3.53;;;1.80;99.90;;;;;;5023885;28;20034;-76
2022/01/26 08:59:33;;;;;;;12.68;4.30;;;1.90;99.90;;;;;;5006133;28;20041;-77
2022/01/26 09:02:05;;;;;;;12.00;4.15;;;1.90;99.90;;;;;;5019706;28;20041;-77
2022/01/26 09:04:35;;;;;;;5.85;3.35;;;1.90;99.90;;;;;;5021984;28;20037;-76
2022/01/26 09:07:04;;;;;;;6.80;3.15;;;1.90;99.90;;;;;;5021534;28;20069;-77
2022/01/26 09:09:42;;;;;;;10.87;3.93;;;2.00;99.90;;;;;;4998746;28;20056;-76
2022/01/26 09:12:14;;;;;;;6.65;3.38;;;1.90;99.90;;;;;;5021521;28;20037;-76
2022/01/26 09:14:43;;;;;;;10.85;4.80;;;2.00;99.90;;;;;;5018353;28;20045;-77
2022/01/26 09:17:16;;;;;;;13.50;3.50;;;2.00;99.90;;;;;;5025343;28;20153;-77
2022/01/26 09:19:46;;;;;;;8.63;4.38;;;2.10;99.90;;;;;;5026390;28;20042;-77
2022/01/26 09:22:16;;;;;;;10.13;3.60;;;2.10;99.90;;;;;;5024896;28;20125;-75
2022/01/26 09:24:46;;;;;;;11.63;4.43;;;2.10;99.90;;;;;;5029086;28;20067;-76
2022/01/26 09:27:17;;;;;;;9.95;3.38;;;2.00;99.90;;;;;;5029866;28;20037;-76
2022/01/26 09:29:47;;;;;;;6.93;3.80;;;2.00;99.90;;;;;;5025703;28;20133;-76
2022/01/26 09:32:16;;;;;;;8.23;4.25;;;2.10;99.90;;;;;;5029132;28;20041;-76
2022/01/26 09:34:45;;;;;;;6.67;4.37;;;2.10;99.90;;;;;;5023918;28;20053;-76
2022/01/26 09:37:16;;;;;;;10.38;3.50;;;2.20;99.90;;;;;;5025967;28;20076;-76
2022/01/26 09:39:47;;;;;;;8.82;2.80;;;2.20;99.90;;;;;;5003628;28;20137;-76
2022/01/26 09:42:18;;;;;;;9.43;2.60;;;2.20;99.90;;;;;;5021569;28;20103;-76
2022/01/26 09:44:46;;;;;;;5.53;2.20;;;2.20;99.90;;;;;;5028427;28;20037;-76
2022/01/26 09:47:15;;;;;;;4.93;1.77;;;2.20;99.90;;;;;;5027928;28;20115;-76
2022/01/26 09:49:45;;;;;;;7.20;2.72;;;2.30;99.90;;;;;;5000164;28;20047;-77
2022/01/26 09:52:20;;;;;;;12.88;4.13;;;2.30;99.90;;;;;;5012819;28;20045;-76
2022/01/26 09:54:49;;;;;;;10.45;2.85;;;2.40;99.90;;;;;;5010009;28;20033;-76
2022/01/26 09:57:29;;;;;;;7.38;3.00;;;2.40;99.90;;;;;;5012298;28;20100;-77
2022/01/26 09:59:58;;;;;;;7.10;2.63;;;2.40;99.90;;;;;;5023775;28;20440;-76
2022/01/26 10:02:34;;;;;;;7.55;3.30;;;2.40;99.90;;;;;;5029333;28;20048;-76
2022/01/26 10:05:07;;;;;;;7.55;2.47;;;2.40;99.90;;;;;;5025060;28;20041;-76
2022/01/26 10:07:47;;;;;;;6.45;2.97;;;2.40;99.90;;;;;;5024668;28;20052;-77
2022/01/26 10:16:18;;;;;;;7.15;2.85;;;2.40;99.90;;;;;;5002330;28;20404;-76
2022/01/26 10:18:55;;;;;;;8.32;3.00;;;2.30;99.90;;;;;;5026138;28;20084;-76
2022/01/26 10:21:50;;;;;;;5.32;2.75;;;2.30;99.90;;;;;;5012365;28;20364;-76
2022/01/26 10:24:20;;;;;;;6.40;1.90;;;2.40;99.90;;;;;;5024492;28;20064;-76
2022/01/26 10:26:50;;;;;;;5.30;2.10;;;2.30;99.90;;;;;;5025439;28;20041;-76
2022/01/26 10:29:20;;;;;;;11.63;3.17;;;2.30;99.90;;;;;;5027053;28;20038;-76
2022/01/26 10:31:48;;;;;;;5.40;2.03;;;2.40;99.90;;;;;;5025064;28;20576;-76
2022/01/26 10:34:42;;;;;;;6.22;1.90;;;2.30;99.90;;;;;;5028117;28;20480;-75
2022/01/26 10:37:10;;;;;;;3.83;1.58;;;2.20;99.90;;;;;;5033827;28;20131;-76
2022/01/26 10:39:45;;;;;;;8.60;2.17;;;2.20;99.90;;;;;;5029392;28;20111;-75
2022/01/26 10:42:19;;;;;;;6.88;2.25;;;2.20;99.90;;;;;;5021914;28;20052;-77
2022/01/26 10:44:59;;;;;;;3.67;1.40;;;2.20;99.90;;;;;;5025921;28;20050;-75
2022/01/26 10:47:32;;;;;;;7.82;2.05;;;2.10;99.90;;;;;;5000766;28;20041;-75
2022/01/26 10:50:46;;;;;;;7.60;2.72;;;2.20;99.90;;;;;;5024965;28;20040;-75
2022/01/26 10:53:18;;;;;;;5.90;2.27;;;2.10;99.90;;;;;;5026631;28;20049;-75
2022/01/26 10:55:47;;;;;;;4.22;1.88;;;2.20;99.90;;;;;;5020494;28;20081;-75
2022/01/26 10:58:17;;;;;;;5.72;1.65;;;2.10;99.90;;;;;;5027696;28;20060;-75
2022/01/26 11:00:47;;;;;;;7.55;2.45;;;2.20;99.90;;;;;;5026525;28;20044;-75
2022/01/26 11:03:17;;;;;;;5.05;2.30;;;2.10;99.90;;;;;;5002314;28;20240;-76
2022/01/26 11:05:46;;;;;;;9.80;2.00;;;2.10;99.90;;;;;;5025131;28;20061;-76
2022/01/26 11:08:15;;;;;;;6.85;2.20;;;2.10;99.90;;;;;;5022378;28;20413;-76
2022/01/26 11:10:47;;;;;;;4.60;2.00;;;2.20;99.90;;;;;;5021941;28;20045;-76
2022/01/26 11:13:25;;;;;;;5.85;2.47;;;2.30;99.90;;;;;;5012162;28;20045;-76
2022/01/26 11:16:08;;;;;;;6.28;2.85;;;2.40;99.90;;;;;;5002181;28;20488;-75
2022/01/26 11:18:51;;;;;;;5.57;3.57;;;2.40;99.90;;;;;;5019899;28;20037;-76
2022/01/26 11:21:34;;;;;;;8.35;2.97;;;2.30;99.90;;;;;;5025091;28;20050;-76
2022/01/26 11:24:08;;;;;;;7.65;3.38;;;2.40;99.90;;;;;;5022713;28;20053;-76
2022/01/26 11:26:41;;;;;;;5.22;2.72;;;2.40;99.90;;;;;;5026950;28;20120;-75
2022/01/26 11:29:23;;;;;;;9.98;3.05;;;2.40;99.90;;;;;;5023877;28;20148;-76
2022/01/26 11:32:06;;;;;;;8.60;2.60;;;2.50;99.90;;;;;;5025329;28;20042;-75
2022/01/26 11:34:59;;;;;;;8.73;3.33;;;2.40;99.90;;;;;;5019788;28;20064;-75
2022/01/26 11:37:38;;;;;;;8.23;2.78;;;2.40;99.90;;;;;;5023916;28;20045;-75
2022/01/26 11:45:39;;;;;;;13.60;3.20;;;2.50;99.90;;;;;;4979128;28;20444;-76
2022/01/26 11:48:12;;;;;;;5.55;2.30;;;2.30;99.90;;;;;;5022041;28;20562;-76
2022/01/26 11:50:44;;;;;;;8.02;3.33;;;2.30;99.90;;;;;;5002070;28;20423;-76
2022/01/26 11:53:17;;;;;;;5.35;1.95;;;2.30;99.90;;;;;;5013720;28;20128;-76
2022/01/26 11:55:48;;;;;;;4.18;2.20;;;2.30;99.90;;;;;;5027176;28;20108;-76
2022/01/26 11:58:20;;;;;;;6.23;1.80;;;2.30;99.90;;;;;;5017643;28;20052;-76
2022/01/26 12:00:58;;;;;;;5.70;2.90;;;2.30;99.90;;;;;;5024111;28;20124;-76
2022/01/26 12:03:42;;;;;;;6.03;2.78;;;2.20;99.90;;;;;;5024348;28;20069;-76
2022/01/26 12:06:18;;;;;;;4.70;2.20;;;2.20;99.90;;;;;;5016444;28;20058;-76
2022/01/26 12:08:48;;;;;;;7.07;2.08;;;2.20;99.90;;;;;;5019501;28;20046;-76
2022/01/26 12:11:17;;;;;;;6.83;1.80;;;2.30;99.90;;;;;;5019982;28;20038;-76
2022/01/26 12:13:50;;;;;;;5.50;2.00;;;2.30;99.90;;;;;;5026849;28;20042;-76
2022/01/26 12:16:23;;;;;;;3.83;1.70;;;2.30;99.90;;;;;;5023899;28;20095;-76
2022/01/26 12:19:08;;;;;;;6.13;1.70;;;2.30;99.90;;;;;;5021531;28;20072;-76
2022/01/26 12:33:05;;;;;;;4.55;2.38;;;2.20;99.90;;;;;;5026766;28;20096;-76
2022/01/26 12:35:49;;;;;;;7.30;2.53;;;2.20;99.90;;;;;;5024388;28;20049;-76
2022/01/26 12:38:45;;;;;;;3.97;1.77;;;2.20;99.90;;;;;;5023057;28;20037;-76
2022/01/26 12:41:27;;;;;;;7.40;3.05;;;2.20;99.90;;;;;;5018121;28;20054;-76
2022/01/26 12:43:59;;;;;;;4.65;2.00;;;2.20;99.90;;;;;;5032344;28;20050;-76
2022/01/26 12:46:30;;;;;;;6.22;2.03;;;2.20;99.90;;;;;;5026214;28;20828;-76
2022/01/26 12:49:00;;;;;;;6.13;2.38;;;2.20;99.90;;;;;;5023666;28;20113;-76
2022/01/26 12:51:31;;;;;;;7.57;2.60;;;2.30;99.90;;;;;;5023801;28;20101;-75
2022/01/26 12:54:02;;;;;;;4.85;2.25;;;2.20;99.90;;;;;;5002236;28;20053;-76
2022/01/26 12:56:33;;;;;;;5.80;2.50;;;2.30;99.90;;;;;;5025006;28;20682;-76
2022/01/26 12:59:03;;;;;;;6.45;2.13;;;2.30;99.90;;;;;;5027148;28;20464;-76
2022/01/26 13:01:36;;;;;;;6.72;1.83;;;2.30;99.90;;;;;;5026414;28;20333;-76
2022/01/26 13:04:07;;;;;;;2.93;1.50;;;2.20;99.90;;;;;;5025397;28;20582;-76
2022/01/26 13:06:41;;;;;;;5.63;2.42;;;2.20;99.90;;;;;;5027904;28;20119;-76
2022/01/26 13:09:17;;;;;;;10.95;2.58;;;2.20;99.90;;;;;;5026290;28;20046;-76
2022/01/26 13:11:47;;;;;;;6.70;1.92;;;2.20;99.90;;;;;;5026344;28;20069;-76
2022/01/26 13:14:23;;;;;;;3.60;1.52;;;2.20;99.90;;;;;;5031218;28;20802;-76
2022/01/26 13:17:12;;;;;;;5.53;3.07;;;2.20;99.90;;;;;;5024977;28;20050;-76
2022/01/26 13:19:57;;;;;;;2.75;1.15;;;2.20;99.90;;;;;;5031403;28;20041;-76
2022/01/26 13:22:47;;;;;;;6.45;3.00;;;2.20;99.90;;;;;;5005801;28;20058;-75
2022/01/26 13:25:33;;;;;;;7.45;2.15;;;2.20;99.90;;;;;;5024839;28;20041;-76
2022/01/26 13:34:35;;;;;;;6.07;2.40;;;2.00;99.90;;;;;;5009038;28;20053;-76
2022/01/26 13:37:16;;;;;;;6.53;3.03;;;2.00;99.90;;;;;;5023327;28;20067;-76
2022/01/26 13:40:04;;;;;;;4.75;1.52;;;2.00;99.90;;;;;;5008301;28;20042;-76
2022/01/26 13:45:57;;;;;;;3.83;1.67;;;1.90;99.90;;;;;;5010414;28;20553;-76
2022/01/26 13:51:19;;;;;;;5.45;1.88;;;1.90;99.90;;;;;;5007224;28;20049;-77
2022/01/26 13:53:55;;;;;;;6.10;2.22;;;1.90;99.90;;;;;;5010742;28;20041;-76
2022/01/26 13:56:37;;;;;;;4.80;2.22;;;1.80;99.90;;;;;;5010317;28;20045;-76
2022/01/26 13:59:14;;;;;;;8.40;3.47;;;1.70;99.90;;;;;;5026961;28;20048;-76
2022/01/26 14:01:45;;;;;;;6.57;1.98;;;1.70;99.90;;;;;;5042161;28;20046;-76
2022/01/26 14:04:15;;;;;;;6.50;1.75;;;1.70;99.90;;;;;;5023395;28;20057;-76
2022/01/26 14:06:44;;;;;;;6.75;2.53;;;1.70;99.90;;;;;;5025731;28;20487;-76
2022/01/26 14:09:13;;;;;;;7.88;2.33;;;1.70;99.90;;;;;;5025995;28;20085;-76
2022/01/26 14:11:47;;;;;;;8.97;2.00;;;1.70;99.90;;;;;;5026704;28;20061;-76
2022/01/26 14:14:24;;;;;;;8.27;1.88;;;1.70;99.90;;;;;;5024143;28;20049;-76
2022/01/26 14:16:58;;;;;;;4.47;1.58;;;1.70;99.90;;;;;;5025763;28;20049;-76
2022/01/26 14:19:39;;;;;;;7.00;3.05;;;1.80;99.90;;;;;;5024341;28;20127;-76
2022/01/26 14:22:33;;;;;;;4.82;1.98;;;1.70;99.90;;;;;;5020986;28;20578;-76
2022/01/26 14:25:15;;;;;;;7.10;2.20;;;1.70;99.90;;;;;;5025694;28;20128;-76
2022/01/26 14:27:45;;;;;;;4.28;1.38;;;1.70;99.90;;;;;;5025230;28;20056;-75
2022/01/26 14:30:33;;;;;;;7.78;3.92;;;1.70;99.90;;;;;;5027422;28;20125;-77
2022/01/26 14:33:13;;;;;;;3.83;1.80;;;1.70;99.90;;;;;;5026051;28;20076;-76
2022/01/26 14:35:55;;;;;;;6.97;3.47;;;1.70;99.90;;;;;;5027392;28;20062;-76
2022/01/26 14:55:29;;;;;;;10.20;3.90;;;1.70;99.90;;;;;;5019454;28;20045;-76
2022/01/26 15:08:41;;;;;;;6.57;3.38;;;1.70;99.90;;;;;;5025216;28;20492;-77
2022/01/26 15:10:16;;;;;;;14.15;3.72;;;1.60;99.90;;;;;;5020577;28;20053;-76
2022/01/26 15:30:06;;;;;;;6.70;3.38;;;1.60;99.90;;;;;;5025561;28;20056;-76
2022/01/26 15:33:21;;;;;;;7.32;2.30;;;1.50;99.90;;;;;;5022698;28;20199;-76
2022/01/26 15:41:41;;;;;;;5.80;1.48;;;1.50;99.90;;;;;;5008829;28;20400;-75
2022/01/26 15:50:40;;;;;;;5.97;2.10;;;1.60;99.90;;;;;;5016863;28;20041;-78
2022/01/26 15:53:18;;;;;;;5.10;2.05;;;1.60;99.90;;;;;;5006087;28;20041;-76
2022/01/26 15:58:45;;;;;;;7.78;2.85;;;1.50;99.90;;;;;;5020570;28;20053;-76
2022/01/26 16:07:00;;;;;;;8.27;3.65;;;1.50;99.90;;;;;;5019534;28;20037;-76
2022/01/26 16:21:03;;;;;;;4.72;2.53;;;1.60;99.90;;;;;;5007073;28;20049;-77
2022/01/26 16:37:48;;;;;;;6.95;2.80;;;1.60;99.90;;;;;;5010945;28;20050;-75